Time;durP1;ratioP1;P1;durP2;ratioP2;P2;SDS_P1;SDS_P2;PMS_P1;PMS_P2;Temp;Humidity;BMP_temperature;BMP_pressure;BME280_temperature;BME280_humidity;BME280_pressure;Samples;Min_cycle;Max_cycle;Signal;HPM_P1;HPM_P2
2023/10/13 00:02:04;;;;;;;;;25.60;24.20;;;;;17.67;42.17;99637.50;5131190;27;8892;-74
2023/10/13 00:04:36;;;;;;;;;21.80;20.00;;;;;17.66;42.20;99641.94;5115704;27;8833;-76
2023/10/13 00:07:08;;;;;;;;;26.60;26.20;;;;;17.64;42.12;99638.50;5110891;28;9695;-73
2023/10/13 00:09:39;;;;;;;;;25.60;25.00;;;;;17.63;42.12;99638.56;5111600;28;8914;-75
2023/10/13 00:12:10;;;;;;;;;23.40;22.80;;;;;17.67;42.13;99634.84;5111863;28;8883;-74
2023/10/13 00:14:41;;;;;;;;;27.40;26.00;;;;;17.67;41.90;99625.06;5111470;28;8852;-76
2023/10/13 00:17:19;;;;;;;;;22.20;21.60;;;;;17.67;42.04;99626.88;5111637;27;8837;-75
2023/10/13 00:19:52;;;;;;;;;23.80;21.60;;;;;17.60;42.25;99636.06;5111324;28;8829;-77
2023/10/13 00:22:22;;;;;;;;;24.20;24.20;;;;;17.65;42.12;99631.41;5110369;28;8895;-76
2023/10/13 00:24:58;;;;;;;;;26.40;25.40;;;;;17.60;42.24;99628.94;5111876;28;8872;-75
2023/10/13 00:27:30;;;;;;;;;30.40;27.00;;;;;17.62;42.08;99629.72;5111998;28;8999;-74
2023/10/13 00:30:22;;;;;;;;;26.00;25.60;;;;;17.48;42.54;99624.25;5093601;28;8857;-74
2023/10/13 00:32:55;;;;;;;;;25.40;23.40;;;;;17.52;42.57;99625.81;5113290;27;8821;-74
2023/10/13 00:35:28;;;;;;;;;24.40;21.80;;;;;17.52;42.60;99625.81;5127548;27;8952;-77
2023/10/13 00:37:57;;;;;;;;;28.00;24.60;;;;;17.43;42.81;99624.44;5116326;27;8868;-74
2023/10/13 00:40:43;;;;;;;;;28.80;27.00;;;;;17.34;43.20;99617.81;5132316;27;8934;-74
2023/10/13 00:46:07;;;;;;;;;24.60;24.60;;;;;17.44;43.16;99623.53;5130777;27;8838;-75
2023/10/13 00:48:51;;;;;;;;;27.20;24.20;;;;;17.35;43.64;99622.16;5125557;27;8857;-76
2023/10/13 00:51:34;;;;;;;;;27.20;26.60;;;;;17.37;43.69;99628.25;5126591;27;8857;-78
2023/10/13 00:54:10;;;;;;;;;21.00;19.60;;;;;17.46;43.31;99624.31;5109624;28;8849;-74
2023/10/13 00:56:46;;;;;;;;;20.60;20.60;;;;;17.53;43.15;99625.75;5111972;28;8845;-78
2023/10/13 00:59:15;;;;;;;;;21.60;21.00;;;;;17.60;43.12;99625.44;5112926;27;8829;-75
2023/10/13 01:01:44;;;;;;;;;26.60;25.60;;;;;17.64;43.05;99627.00;5119057;27;8867;-76
2023/10/13 01:04:14;;;;;;;;;29.60;28.80;;;;;17.66;43.69;99633.94;5124485;28;9044;-75
2023/10/13 01:06:45;;;;;;;;;33.40;31.40;;;;;17.66;43.77;99635.75;5111532;28;8905;-76
2023/10/13 01:09:13;;;;;;;;;33.40;29.20;;;;;17.62;44.23;99645.69;5091539;28;8921;-76
2023/10/13 01:11:44;;;;;;;;;30.80;29.20;;;;;17.55;43.80;99641.59;5126438;27;8837;-78
2023/10/13 01:14:14;;;;;;;;;30.60;27.80;;;;;17.52;44.10;99647.06;5109648;28;8837;-75
2023/10/13 01:16:44;;;;;;;;;28.60;25.60;;;;;17.47;44.27;99646.44;5109457;28;8979;-76
2023/10/13 01:19:18;;;;;;;;;25.60;23.80;;;;;17.44;44.36;99647.44;5094103;28;8853;-78
2023/10/13 01:21:49;;;;;;;;;29.25;29.00;;;;;17.37;44.47;99646.88;5117144;27;8924;-75
2023/10/13 01:24:20;;;;;;;;;30.75;29.25;;;;;17.34;44.55;99647.03;5130049;27;8878;-75
2023/10/13 01:26:53;;;;;;;;;29.00;28.20;;;;;17.29;44.41;99648.19;5131020;27;8855;-78
2023/10/13 01:29:26;;;;;;;;;28.60;27.80;;;;;16.83;45.48;99659.06;5130635;27;8975;-75
2023/10/13 01:31:55;;;;;;;;;25.00;22.80;;;;;16.32;46.92;99671.03;5132074;27;8822;-76
2023/10/13 01:34:23;;;;;;;;;27.20;25.40;;;;;16.15;47.87;99669.09;5108398;27;8868;-76
2023/10/13 01:36:54;;;;;;;;;29.20;28.20;;;;;16.31;47.56;99670.16;5110374;28;8848;-77
2023/10/13 01:39:26;;;;;;;;;30.80;29.20;;;;;16.42;47.13;99667.06;5092132;28;8875;-79
2023/10/13 01:41:56;;;;;;;;;32.20;29.00;;;;;16.45;47.20;99674.91;5109101;28;8837;-75
2023/10/13 01:44:27;;;;;;;;;32.60;30.00;;;;;16.48;47.23;99668.63;5109051;28;8873;-76
2023/10/13 01:46:58;;;;;;;;;29.40;26.40;;;;;16.51;47.10;99672.00;5108679;28;8837;-76
2023/10/13 01:49:29;;;;;;;;;29.40;27.60;;;;;16.52;47.16;99678.16;5110088;27;8841;-76
2023/10/13 01:52:03;;;;;;;;;35.20;30.80;;;;;16.52;46.93;99672.84;5108390;28;8853;-76
2023/10/13 01:54:33;;;;;;;;;27.60;26.80;;;;;16.54;47.05;99684.28;5108749;27;8837;-75
2023/10/13 01:57:03;;;;;;;;;31.25;30.00;;;;;16.50;46.99;99680.88;5108823;28;8915;-76
2023/10/13 01:59:32;;;;;;;;;25.20;24.00;;;;;16.45;46.83;99680.22;5108955;28;8849;-75
2023/10/13 02:02:01;;;;;;;;;28.40;25.40;;;;;16.42;47.11;99677.69;5108756;28;8837;-77
2023/10/13 02:04:32;;;;;;;;;23.80;22.80;;;;;16.33;47.02;99675.41;5108806;28;8860;-76
2023/10/13 02:07:00;;;;;;;;;25.60;25.20;;;;;16.32;47.14;99674.56;5075227;27;8837;-78
2023/10/13 02:09:29;;;;;;;;;26.20;24.80;;;;;16.31;47.29;99670.16;5124633;27;8837;-77
2023/10/13 02:11:59;;;;;;;;;25.00;25.00;;;;;16.29;47.36;99658.75;5111884;28;8888;-75
2023/10/13 02:14:28;;;;;;;;;24.00;22.40;;;;;16.29;47.66;99661.41;5125552;27;8876;-78
2023/10/13 02:17:11;;;;;;;;;19.20;18.60;;;;;16.26;47.90;99661.53;5108434;28;8840;-76
2023/10/13 02:19:44;;;;;;;;;25.80;25.20;;;;;16.25;48.10;99664.25;5108759;28;8860;-76
2023/10/13 02:22:25;;;;;;;;;24.00;23.80;;;;;16.23;48.13;99662.53;5107683;28;8834;-77
2023/10/13 02:25:01;;;;;;;;;22.20;21.60;;;;;16.25;48.21;99667.78;5106960;28;8849;-77
2023/10/13 02:27:40;;;;;;;;;24.80;23.20;;;;;16.23;48.58;99665.19;5107851;28;8937;-75
2023/10/13 02:30:14;;;;;;;;;25.20;24.20;;;;;16.23;48.49;99659.03;5090800;28;8845;-75
2023/10/13 02:32:43;;;;;;;;;24.60;24.00;;;;;16.26;48.41;99664.19;5079483;27;8843;-78
2023/10/13 02:35:15;;;;;;;;;24.80;22.80;;;;;16.25;48.58;99657.19;5128644;27;9077;-77
2023/10/13 02:37:44;;;;;;;;;25.80;25.80;;;;;16.24;48.69;99652.78;5128442;27;8846;-79
2023/10/13 02:40:13;;;;;;;;;26.40;23.80;;;;;16.22;48.90;99659.94;5075954;27;8846;-74
2023/10/13 02:42:42;;;;;;;;;27.40;27.40;;;;;16.22;48.92;99665.25;5129644;27;8903;-76
2023/10/13 02:45:12;;;;;;;;;26.20;25.80;;;;;16.20;48.52;99656.50;5129918;27;8889;-75
2023/10/13 02:47:43;;;;;;;;;31.40;30.00;;;;;16.18;48.92;99664.50;5130449;27;8826;-76
2023/10/13 02:50:12;;;;;;;;;34.25;31.00;;;;;16.16;49.12;99666.38;5129029;27;10082;-75
2023/10/13 02:52:41;;;;;;;;;34.75;32.25;;;;;16.15;49.31;99679.69;5116087;27;8857;-76
2023/10/13 02:55:14;;;;;;;;;39.75;34.00;;;;;16.15;49.15;99680.56;5073981;27;8876;-77
2023/10/13 02:57:44;;;;;;;;;37.75;33.25;;;;;16.13;49.64;99674.44;5076346;27;9954;-77
2023/10/13 03:00:15;;;;;;;;;40.25;34.75;;;;;16.06;49.80;99672.13;5127973;27;8942;-77
2023/10/13 03:02:55;;;;;;;;;46.00;36.50;;;;;16.03;50.14;99684.56;5119046;28;9030;-75
2023/10/13 03:05:24;;;;;;;;;48.00;39.50;;;;;16.05;50.25;99687.19;5076536;28;8914;-77
2023/10/13 03:07:55;;;;;;;;;38.25;33.00;;;;;16.06;50.42;99683.59;5073394;28;8849;-77
2023/10/13 03:10:28;;;;;;;;;47.00;39.00;;;;;16.02;50.48;99676.72;5073099;27;8835;-76
2023/10/13 03:13:01;;;;;;;;;55.00;44.75;;;;;16.00;50.58;99678.53;5129116;27;8838;-76
2023/10/13 03:15:35;;;;;;;;;62.75;50.00;;;;;16.01;50.55;99678.47;5092998;27;8854;-76
2023/10/13 03:18:03;;;;;;;;;44.00;36.50;;;;;16.03;50.56;99671.31;5128165;27;8826;-77
2023/10/13 03:20:32;;;;;;;;;48.50;41.00;;;;;16.02;50.68;99671.41;5123574;27;9011;-77
2023/10/13 03:23:00;;;;;;;;;48.50;39.25;;;;;16.01;50.79;99675.81;5090730;28;8861;-79
2023/10/13 03:25:42;;;;;;;;;49.50;41.50;;;;;16.06;50.82;99667.69;5108582;28;8857;-76
2023/10/13 03:28:13;;;;;;;;;46.75;38.50;;;;;16.03;50.69;99660.72;5112809;28;8842;-79
2023/10/13 03:30:42;;;;;;;;;49.25;41.25;;;;;16.01;51.00;99651.97;5113014;28;8845;-76
2023/10/13 03:33:13;;;;;;;;;49.75;41.75;;;;;15.89;51.55;99660.44;5112618;28;8902;-75
2023/10/13 03:35:43;;;;;;;;;51.50;41.75;;;;;15.93;51.20;99656.75;5113173;28;8865;-78
2023/10/13 03:38:16;;;;;;;;;52.50;41.50;;;;;15.91;51.47;99661.25;5089774;28;8865;-75
2023/10/13 03:41:06;;;;;;;;;37.75;34.25;;;;;15.91;51.66;99663.88;5071699;28;8966;-76
2023/10/13 03:43:44;;;;;;;;;53.00;44.50;;;;;15.93;51.68;99663.84;5089624;28;8845;-76
2023/10/13 03:46:15;;;;;;;;;53.25;44.50;;;;;15.92;51.71;99667.41;5089860;28;8943;-78
2023/10/13 03:48:54;;;;;;;;;55.00;44.50;;;;;15.92;51.41;99665.59;5089607;28;8846;-77
2023/10/13 03:51:30;;;;;;;;;53.50;43.50;;;;;15.91;51.71;99665.69;5089979;28;8857;-77
2023/10/13 03:54:07;;;;;;;;;51.00;42.75;;;;;15.90;51.81;99664.81;5090529;28;8885;-77
2023/10/13 03:56:44;;;;;;;;;51.25;43.25;;;;;15.87;51.87;99664.94;5073183;28;8850;-75
2023/10/13 03:59:20;;;;;;;;;65.00;50.00;;;;;15.89;51.70;99659.56;5089825;28;8876;-77
2023/10/13 04:01:58;;;;;;;;;51.50;42.75;;;;;15.85;52.12;99658.84;5072599;28;8854;-75
2023/10/13 04:04:42;;;;;;;;;52.75;43.75;;;;;15.81;52.10;99658.09;5089341;28;8849;-75
2023/10/13 04:11:41;;;;;;;;;52.75;43.50;;;;;15.84;52.00;99651.81;5047474;28;8889;-76
2023/10/13 04:16:14;;;;;;;;;61.50;49.75;;;;;15.75;52.38;99654.84;5049132;28;8826;-77
2023/10/13 04:19:03;;;;;;;;;53.75;44.75;;;;;15.56;53.36;99660.84;5041289;28;8867;-75
2023/10/13 04:21:55;;;;;;;;;51.50;43.75;;;;;15.47;53.41;99660.34;5052293;28;8851;-76
2023/10/13 04:24:37;;;;;;;;;53.50;44.75;;;;;15.47;53.80;99665.63;5052089;28;8844;-77
2023/10/13 04:30:10;;;;;;;;;52.50;42.50;;;;;15.33;54.59;99671.47;5048422;28;9078;-76
2023/10/13 04:32:46;;;;;;;;;55.50;45.75;;;;;15.21;54.98;99671.03;5048750;28;8854;-76
2023/10/13 04:35:19;;;;;;;;;56.50;44.75;;;;;15.19;55.17;99664.94;5032250;28;8858;-76
2023/10/13 04:37:54;;;;;;;;;49.25;41.25;;;;;15.01;55.80;99668.28;5046056;28;8849;-80
2023/10/13 04:40:24;;;;;;;;;54.25;45.00;;;;;15.22;55.04;99671.88;5048501;28;8853;-78
2023/10/13 04:42:57;;;;;;;;;51.00;42.75;;;;;15.33;54.87;99675.00;5058378;28;8836;-76
2023/10/13 04:45:38;;;;;;;;;53.25;44.75;;;;;15.40;54.57;99678.28;5066796;28;8836;-76
2023/10/13 04:48:17;;;;;;;;;50.25;42.75;;;;;15.53;54.30;99681.28;5107808;28;8961;-77
2023/10/13 04:50:50;;;;;;;;;49.75;42.25;;;;;15.57;54.19;99681.13;5111945;28;8865;-77
2023/10/13 04:53:30;;;;;;;;;48.00;40.00;;;;;15.65;53.73;99688.78;5112362;28;8845;-78
2023/10/13 04:56:50;;;;;;;;;47.75;40.75;;;;;15.69;53.66;99689.53;5112313;28;8841;-77
2023/10/13 05:05:11;;;;;;;;;53.00;44.00;;;;;15.79;53.36;99706.78;5110166;27;8837;-77
2023/10/13 05:47:01;;;;;;;;;49.00;40.75;;;;;15.55;53.98;99732.47;5053476;28;8953;-79
2023/10/13 05:49:49;;;;;;;;;49.50;41.50;;;;;15.67;53.84;99736.44;5048423;28;8846;-81
2023/10/13 06:28:45;;;;;;;;;45.25;37.25;;;;;16.71;51.06;99784.41;5094364;28;8941;-76
2023/10/13 06:31:22;;;;;;;;;42.75;37.25;;;;;16.80;50.70;99776.91;5124114;27;8851;-77
2023/10/13 06:33:52;;;;;;;;;34.75;32.75;;;;;16.78;50.67;99789.38;5108163;28;8841;-77
2023/10/13 06:36:20;;;;;;;;;45.25;34.50;;;;;16.84;50.70;99798.88;5127474;27;8866;-86
2023/10/13 06:39:20;;;;;;;;;41.75;36.00;;;;;17.01;50.29;99806.09;5113954;27;8864;-86
2023/10/13 06:41:45;;;;;;;;;47.25;40.00;;;;;16.94;50.32;99821.44;5094779;28;8888;-86
2023/10/13 06:44:22;;;;;;;;;40.25;34.75;;;;;17.08;50.19;99823.50;5118421;27;8849;-84
2023/10/13 06:46:52;;;;;;;;;40.75;35.75;;;;;16.82;50.69;99826.44;5061608;28;8965;-86
2023/10/13 06:49:23;;;;;;;;;44.25;36.75;;;;;16.88;50.44;99829.66;5109327;28;8946;-84
2023/10/13 06:51:51;;;;;;;;;34.75;32.00;;;;;16.93;50.46;99826.84;5093207;27;8831;-86
2023/10/13 06:54:24;;;;;;;;;44.25;38.00;;;;;16.94;50.51;99834.72;5107337;28;8964;-85
2023/10/13 06:56:53;;;;;;;;;36.25;30.00;;;;;17.20;50.22;99824.75;5071160;28;8900;-85
2023/10/13 06:59:26;;;;;;;;;43.75;36.25;;;;;17.44;49.90;99821.94;5083666;28;8892;-88
2023/10/13 07:02:02;;;;;;;;;38.00;33.25;;;;;17.56;49.55;99819.59;5046050;28;8848;-85
2023/10/13 07:04:46;;;;;;;;;37.40;33.80;;;;;17.76;49.18;99825.81;5021481;28;8868;-87
2023/10/13 07:07:16;;;;;;;;;40.00;35.50;;;;;17.85;48.91;99824.50;5024871;28;8953;-85
2023/10/13 07:09:55;;;;;;;;;42.50;35.50;;;;;18.03;48.46;99826.34;5032380;28;8852;-84
2023/10/13 07:12:26;;;;;;;;;40.25;34.25;;;;;18.21;48.14;99823.72;5009740;28;8844;-82
2023/10/13 07:15:10;;;;;;;;;40.75;35.75;;;;;18.20;48.22;99824.69;5043743;28;8942;-84
2023/10/13 07:17:40;;;;;;;;;35.50;33.00;;;;;18.33;47.88;99824.00;5010780;28;8857;-83
2023/10/13 07:20:23;;;;;;;;;32.75;31.75;;;;;18.55;47.74;99825.59;5030889;28;8846;-84
2023/10/13 07:23:03;;;;;;;;;39.75;34.50;;;;;18.15;48.73;99835.53;5025636;28;8860;-86
2023/10/13 07:25:37;;;;;;;;;35.75;32.25;;;;;18.50;48.07;99827.66;5044432;28;9674;-86
2023/10/13 07:28:08;;;;;;;;;38.00;32.40;;;;;17.89;49.51;99842.03;5043633;28;8838;-82
2023/10/13 07:30:49;;;;;;;;;38.50;33.50;;;;;17.60;51.03;99846.06;5075544;28;8843;-81
2023/10/13 07:33:19;;;;;;;;;30.40;28.40;;;;;17.92;50.07;99836.59;5067873;28;9650;-81
2023/10/13 07:36:01;;;;;;;;;33.60;31.60;;;;;18.23;49.60;99830.72;5068031;28;9091;-86
2023/10/13 07:38:37;;;;;;;;;30.00;27.80;;;;;17.57;51.38;99839.06;5063268;28;8969;-85
2023/10/13 07:41:08;;;;;;;;;36.40;32.40;;;;;17.50;51.87;99858.91;5068538;28;9011;-82
2023/10/13 07:43:38;;;;;;;;;30.40;28.20;;;;;17.20;52.99;99862.81;5061277;28;9064;-80
2023/10/13 07:46:09;;;;;;;;;37.75;33.75;;;;;17.17;53.37;99849.69;5071324;28;8941;-87
2023/10/13 07:48:40;;;;;;;;;31.40;29.40;;;;;17.56;52.29;99848.00;5060897;28;8867;-81
2023/10/13 07:51:12;;;;;;;;;33.80;30.80;;;;;17.98;51.47;99844.28;5078873;28;8850;-83
2023/10/13 07:53:43;;;;;;;;;35.80;33.00;;;;;17.96;50.91;99854.13;5079311;28;8857;-82
2023/10/13 07:56:12;;;;;;;;;31.60;29.20;;;;;17.78;51.16;99853.22;5123569;28;8947;-82
2023/10/13 07:58:52;;;;;;;;;32.60;31.00;;;;;18.25;50.20;99855.47;5111221;28;8941;-81
2023/10/13 08:01:26;;;;;;;;;37.60;33.20;;;;;18.53;49.27;99862.97;5099733;28;8847;-82
2023/10/13 08:04:11;;;;;;;;;25.80;25.40;;;;;17.96;50.87;99848.81;5108125;28;8861;-81
2023/10/13 08:06:43;;;;;;;;;24.60;24.60;;;;;17.71;51.38;99857.94;5102274;27;9660;-81
2023/10/13 08:11:55;;;;;;;;;30.20;26.60;;;;;17.90;50.98;99849.09;5123661;27;8919;-80
2023/10/13 08:14:28;;;;;;;;;27.80;25.40;;;;;18.17;49.91;99854.94;5125308;27;8857;-82
2023/10/13 08:17:12;;;;;;;;;29.00;24.80;;;;;17.39;51.98;99859.38;5122961;27;8836;-81
2023/10/13 08:19:44;;;;;;;;;31.20;26.80;;;;;17.76;51.49;99847.09;5094556;28;8849;-81
2023/10/13 08:22:23;;;;;;;;;25.00;24.80;;;;;17.92;50.46;99844.56;5113832;27;9037;-81
2023/10/13 08:27:49;;;;;;;;;25.60;24.40;;;;;18.25;49.87;99843.94;5112515;27;8841;-83
2023/10/13 08:30:27;;;;;;;;;31.40;28.80;;;;;17.98;50.40;99844.28;5094329;28;8871;-86
2023/10/13 08:32:59;;;;;;;;;28.40;28.40;;;;;18.51;49.24;99843.53;5124930;27;9584;-80
2023/10/13 08:35:44;;;;;;;;;28.20;28.00;;;;;18.72;48.75;99844.28;5129440;27;8984;-87
2023/10/13 08:38:19;;;;;;;;;26.60;26.60;;;;;18.40;49.32;99848.50;5072704;27;8873;-86
2023/10/13 08:43:51;;;;;;;;;32.80;29.60;;;;;17.91;51.78;99859.69;5099430;27;10600;-81
2023/10/13 08:46:28;;;;;;;;;29.40;28.00;;;;;18.30;50.73;99863.22;5061959;28;8947;-80
2023/10/13 08:49:09;;;;;;;;;29.00;25.80;;;;;18.28;50.28;99870.41;5113168;28;8881;-82
2023/10/13 08:51:48;;;;;;;;;34.80;31.40;;;;;18.05;50.91;99859.06;5059939;28;8867;-81
2023/10/13 08:54:34;;;;;;;;;25.00;25.00;;;;;18.17;50.74;99865.59;5109314;28;8860;-79
2023/10/13 08:57:32;;;;;;;;;27.80;24.40;;;;;18.73;49.38;99866.44;5075400;28;9846;-80
2023/10/13 09:06:00;;;;;;;;;30.60;27.60;;;;;20.06;46.38;99866.59;5028192;28;8967;-79
2023/10/13 09:08:35;;;;;;;;;27.20;27.00;;;;;20.35;45.27;99861.50;5028715;28;8865;-81
2023/10/13 09:11:12;;;;;;;;;30.60;29.80;;;;;20.61;44.76;99862.63;5028658;28;9676;-81
2023/10/13 09:13:51;;;;;;;;;26.60;26.20;;;;;20.79;43.73;99862.53;5023931;28;8893;-80
2023/10/13 09:16:51;;;;;;;;;28.00;23.40;;;;;20.98;43.36;99849.84;5011878;28;8969;-80
2023/10/13 09:19:15;;;;;;;;;25.60;25.60;;;;;21.16;43.25;99861.25;5034163;28;8838;-79
2023/10/13 09:21:54;;;;;;;;;35.60;31.40;;;;;20.96;43.32;99857.09;4997880;28;8854;-80
2023/10/13 09:24:31;;;;;;;;;31.00;29.60;;;;;20.55;43.79;99862.16;5017680;28;8939;-82
2023/10/13 09:27:03;;;;;;;;;29.00;29.00;;;;;20.51;43.92;99857.94;5031814;28;8888;-80
2023/10/13 09:29:38;;;;;;;;;30.60;28.20;;;;;20.53;43.29;99861.38;5046759;28;8972;-79
2023/10/13 09:32:11;;;;;;;;;26.40;24.80;;;;;20.83;42.78;99851.56;5048038;28;8858;-79
2023/10/13 09:34:44;;;;;;;;;30.40;28.40;;;;;20.92;42.51;99857.34;5030618;28;8889;-81
2023/10/13 09:37:20;;;;;;;;;32.40;31.40;;;;;21.20;42.36;99848.53;5059463;28;8936;-81
2023/10/13 09:39:53;;;;;;;;;37.75;32.25;;;;;21.33;42.72;99851.31;5035280;28;8872;-80
2023/10/13 09:42:23;;;;;;;;;32.20;29.60;;;;;21.49;41.66;99846.78;5109574;28;8853;-80
2023/10/13 09:44:55;;;;;;;;;36.25;32.50;;;;;21.61;42.35;99847.84;5109872;27;8997;-80
2023/10/13 09:47:32;;;;;;;;;30.40;28.40;;;;;21.63;41.33;99838.78;5110468;28;8919;-81
2023/10/13 09:50:14;;;;;;;;;30.20;27.20;;;;;21.09;42.14;99845.66;5078741;28;8859;-81
2023/10/13 09:52:47;;;;;;;;;28.20;24.80;;;;;21.17;42.08;99844.25;5092505;28;8887;-80
2023/10/13 09:55:26;;;;;;;;;27.80;27.80;;;;;21.51;42.00;99846.69;5113411;28;8857;-79
2023/10/13 09:58:09;;;;;;;;;25.60;23.40;;;;;21.82;42.06;99848.31;5111385;28;8891;-80
2023/10/13 10:03:43;;;;;;;;;33.20;31.60;;;;;21.38;41.49;99844.75;5079882;28;8925;-78
2023/10/13 10:06:28;;;;;;;;;24.20;24.20;;;;;21.43;41.25;99842.66;5089226;28;8837;-79
2023/10/13 10:09:13;;;;;;;;;26.20;25.40;;;;;21.19;41.39;99836.13;5109731;28;8995;-80
2023/10/13 10:12:11;;;;;;;;;30.80;29.40;;;;;21.06;41.62;99839.53;5110083;28;8841;-79
2023/10/13 10:15:06;;;;;;;;;34.40;31.40;;;;;21.03;42.55;99837.06;5121451;27;8858;-78
2023/10/13 10:17:42;;;;;;;;;29.60;27.00;;;;;21.38;42.23;99836.72;5045829;28;8858;-79
2023/10/13 10:20:32;;;;;;;;;34.60;30.20;;;;;21.71;41.77;99832.97;5046015;28;8865;-79
2023/10/13 10:23:01;;;;;;;;;28.20;28.20;;;;;22.04;40.41;99823.72;5045618;28;8955;-79
2023/10/13 10:25:35;;;;;;;;;30.00;27.40;;;;;22.21;40.31;99815.44;5046033;28;8842;-79
2023/10/13 10:28:06;;;;;;;;;27.20;25.80;;;;;22.41;39.69;99814.19;5046069;28;9663;-79
2023/10/13 10:30:38;;;;;;;;;30.40;27.00;;;;;22.58;39.44;99813.06;5053806;28;8828;-79
2023/10/13 10:33:12;;;;;;;;;26.20;25.60;;;;;22.69;39.15;99809.63;5049271;28;8863;-78
2023/10/13 10:35:42;;;;;;;;;31.60;29.80;;;;;22.39;38.67;99807.19;5066787;28;9038;-80
2023/10/13 10:38:15;;;;;;;;;24.80;23.80;;;;;22.34;38.59;99814.69;5033726;28;8843;-79
2023/10/13 10:40:56;;;;;;;;;26.40;23.20;;;;;22.73;38.01;99815.66;5014583;28;8858;-78
2023/10/13 10:43:28;;;;;;;;;22.80;22.20;;;;;22.85;37.44;99808.63;5046502;28;8993;-79
2023/10/13 10:46:02;;;;;;;;;19.60;18.80;;;;;22.98;37.58;99805.00;5056822;28;8840;-78
2023/10/13 10:48:34;;;;;;;;;25.00;24.60;;;;;23.17;36.67;99804.59;5050035;28;8918;-79
2023/10/13 10:51:13;;;;;;;;;25.60;23.60;;;;;23.32;35.89;99799.97;5049425;28;9038;-80
2023/10/13 10:53:46;;;;;;;;;19.80;19.00;;;;;23.59;35.76;99804.38;5065617;28;9044;-78
2023/10/13 10:56:24;;;;;;;;;23.00;22.40;;;;;23.76;35.34;99798.66;5129260;27;8834;-79
2023/10/13 10:58:56;;;;;;;;;28.00;26.00;;;;;23.97;35.55;99792.69;5117714;27;8872;-78
2023/10/13 11:01:33;;;;;;;;;22.80;22.00;;;;;24.07;35.02;99788.34;5113817;28;8856;-77
2023/10/13 11:04:10;;;;;;;;;26.60;25.80;;;;;24.23;34.44;99790.81;5121143;27;8899;-77
2023/10/13 11:06:42;;;;;;;;;21.80;21.40;;;;;24.43;34.24;99791.97;5109304;28;8867;-77
2023/10/13 11:09:31;;;;;;;;;23.60;22.60;;;;;24.46;33.74;99793.59;5108305;27;8869;-78
2023/10/13 11:12:15;;;;;;;;;26.20;26.20;;;;;24.83;34.04;99789.00;5109812;28;8853;-80
2023/10/13 11:14:50;;;;;;;;;24.40;23.20;;;;;24.91;34.13;99789.25;5113573;27;8855;-81
2023/10/13 11:17:24;;;;;;;;;25.00;21.80;;;;;25.09;33.03;99784.25;5119673;27;8889;-82
2023/10/13 11:19:55;;;;;;;;;15.20;13.20;;;;;25.18;33.00;99777.31;5116062;27;8842;-80
2023/10/13 11:22:32;;;;;;;;;25.20;24.60;;;;;25.35;32.13;99772.47;5108769;28;8877;-80
2023/10/13 11:25:09;;;;;;;;;26.60;24.00;;;;;25.50;31.92;99772.09;5121663;28;8829;-83
2023/10/13 11:27:56;;;;;;;;;22.40;21.20;;;;;25.64;32.01;99768.31;5119891;27;8858;-80
2023/10/13 11:30:31;;;;;;;;;29.40;25.00;;;;;25.87;31.11;99777.22;5127259;27;8834;-80
2023/10/13 11:33:05;;;;;;;;;21.80;20.40;;;;;25.85;31.08;99768.41;5103637;27;8852;-81
2023/10/13 11:35:56;;;;;;;;;22.80;22.00;;;;;25.94;30.66;99772.19;5111060;27;8939;-82
2023/10/13 11:38:27;;;;;;;;;24.00;24.00;;;;;26.14;30.60;99770.56;5121675;27;8847;-81
2023/10/13 11:44:05;;;;;;;;;25.60;22.40;;;;;26.19;30.13;99759.38;5121221;27;8826;-80
2023/10/13 11:49:36;;;;;;;;;22.40;20.80;;;;;26.38;30.12;99758.69;5044322;28;9004;-80
2023/10/13 11:52:16;;;;;;;;;22.40;21.00;;;;;26.50;30.10;99755.00;5032603;28;8933;-79
2023/10/13 11:54:46;;;;;;;;;24.60;21.60;;;;;26.63;29.39;99752.13;5048791;28;8848;-79
2023/10/13 11:57:19;;;;;;;;;18.00;18.00;;;;;26.44;29.65;99750.97;5032426;28;8949;-80
2023/10/13 12:00:24;;;;;;;;;23.00;22.80;;;;;26.44;29.83;99756.34;5048732;28;8836;-78
2023/10/13 12:05:59;;;;;;;;;25.60;25.40;;;;;26.33;30.08;99753.69;5020779;28;8851;-78
2023/10/13 12:08:32;;;;;;;;;23.80;23.80;;;;;26.30;29.84;99748.56;5048316;28;8851;-77
2023/10/13 12:11:30;;;;;;;;;25.20;25.20;;;;;26.17;30.14;99751.41;5048288;28;8848;-76
2023/10/13 12:13:50;;;;;;;;;26.00;25.20;;;;;26.07;30.27;99737.88;5047876;28;8973;-80
2023/10/13 12:16:22;;;;;;;;;31.40;29.20;;;;;26.11;30.33;99740.31;5031519;28;8852;-76
2023/10/13 12:18:53;;;;;;;;;27.00;25.80;;;;;26.09;30.43;99738.59;5048269;28;8851;-77
2023/10/13 12:21:22;;;;;;;;;29.20;27.60;;;;;26.06;30.64;99736.16;5047599;28;8848;-78
2023/10/13 12:23:53;;;;;;;;;27.40;26.40;;;;;25.93;30.87;99734.59;5015023;28;8839;-78
2023/10/13 12:26:32;;;;;;;;;26.75;22.75;;;;;25.92;30.47;99730.22;5079149;27;8857;-75
2023/10/13 12:29:06;;;;;;;;;26.50;26.50;;;;;25.85;30.90;99727.13;5116832;27;8885;-78
2023/10/13 12:31:39;;;;;;;;;28.00;28.00;;;;;25.82;30.64;99725.56;5129767;27;8850;-78
2023/10/13 12:34:18;;;;;;;;;26.20;24.00;;;;;25.70;31.41;99724.72;5076617;27;8849;-79
2023/10/13 12:37:05;;;;;;;;;28.00;26.80;;;;;25.68;31.06;99728.50;5111377;28;8849;-81
2023/10/13 12:51:07;;;;;;;;;26.80;25.00;;;;;25.37;31.39;99706.78;5022826;28;8842;-74
2023/10/13 12:53:36;;;;;;;;;26.20;25.20;;;;;25.40;32.10;99703.00;5028965;28;8842;-76
2023/10/13 12:56:06;;;;;;;;;27.25;26.75;;;;;25.46;31.85;99705.19;4994793;28;8854;-78
2023/10/13 12:58:34;;;;;;;;;28.75;27.25;;;;;25.47;31.45;99701.50;5025441;28;8849;-75
2023/10/13 13:01:06;;;;;;;;;30.25;29.25;;;;;25.48;31.67;99700.53;5026468;28;8874;-76
2023/10/13 13:03:41;;;;;;;;;30.75;29.00;;;;;25.47;31.93;99698.81;5026000;28;8853;-75
2023/10/13 13:06:17;;;;;;;;;31.75;29.00;;;;;25.58;31.93;99693.41;5014023;28;8849;-74
2023/10/13 13:08:46;;;;;;;;;26.25;25.00;;;;;25.51;31.64;99694.88;5011964;28;8826;-78
2023/10/13 13:11:15;;;;;;;;;30.25;29.50;;;;;25.52;31.87;99693.91;5027251;28;9666;-74
2023/10/13 13:13:46;;;;;;;;;34.75;31.00;;;;;25.49;32.52;99694.16;5026735;28;8863;-77
2023/10/13 13:16:18;;;;;;;;;33.00;30.75;;;;;25.42;32.23;99696.50;5053250;28;9035;-75
2023/10/13 13:18:48;;;;;;;;;30.50;30.00;;;;;25.45;32.47;99690.00;5091745;28;8956;-77
2023/10/13 13:21:21;;;;;;;;;35.00;31.25;;;;;25.43;32.92;99690.13;5091601;28;8942;-75
2023/10/13 13:23:50;;;;;;;;;32.75;29.75;;;;;25.38;32.57;99688.78;5090500;28;8856;-74
2023/10/13 13:26:19;;;;;;;;;35.25;31.25;;;;;25.40;32.73;99686.84;5073799;28;8938;-74
2023/10/13 13:28:50;;;;;;;;;34.00;31.50;;;;;25.36;32.83;99686.25;5095608;27;8900;-77
2023/10/13 13:31:25;;;;;;;;;35.75;32.25;;;;;25.35;32.98;99684.53;5123426;27;8845;-78
2023/10/13 13:33:55;;;;;;;;;35.00;32.00;;;;;25.28;33.05;99684.16;5109417;28;9671;-74
2023/10/13 13:36:25;;;;;;;;;38.50;33.00;;;;;25.12;33.61;99686.34;5100637;28;8881;-75
2023/10/13 13:39:00;;;;;;;;;34.25;31.75;;;;;25.05;33.25;99679.75;5114518;27;8853;-75
2023/10/13 13:41:32;;;;;;;;;37.75;33.75;;;;;25.10;33.61;99675.72;5108614;27;8861;-75
2023/10/13 13:44:13;;;;;;;;;34.00;31.00;;;;;25.14;33.24;99673.63;5109403;28;8829;-74
2023/10/13 13:46:42;;;;;;;;;38.00;34.00;;;;;25.12;32.86;99676.44;5112236;27;8873;-78
2023/10/13 13:49:19;;;;;;;;;30.50;29.75;;;;;25.10;33.19;99664.94;5113514;27;8859;-76
2023/10/13 13:51:51;;;;;;;;;38.00;33.75;;;;;24.98;33.12;99671.31;5109954;27;8911;-78
2023/10/13 13:54:20;;;;;;;;;36.00;32.00;;;;;24.88;33.40;99673.00;5116421;27;8849;-77
2023/10/13 13:56:49;;;;;;;;;36.25;32.50;;;;;24.86;33.26;99675.81;5109369;27;8869;-74
2023/10/13 13:59:19;;;;;;;;;34.25;31.75;;;;;24.82;33.33;99673.50;5062648;28;8853;-76
2023/10/13 14:01:48;;;;;;;;;39.75;34.50;;;;;24.84;33.86;99676.94;5108878;28;8849;-75
2023/10/13 14:04:19;;;;;;;;;38.25;33.75;;;;;24.82;33.97;99681.56;5109383;28;8875;-74
2023/10/13 14:06:50;;;;;;;;;38.00;34.50;;;;;24.81;33.78;99685.22;5114694;27;8855;-75
2023/10/13 14:09:32;;;;;;;;;35.50;31.25;;;;;24.66;33.64;99681.88;5129087;27;8965;-76
2023/10/13 14:14:50;;;;;;;;;37.25;32.75;;;;;24.67;34.02;99667.47;5078686;28;8881;-74